createdAt,value
2017-04-25T00:00:55.557Z,9.51
2017-04-25T00:02:08.081Z,9.51
2017-04-25T00:03:20.020Z,9.49
2017-04-25T00:04:32.566Z,9.48
2017-04-25T00:05:44.815Z,9.52
2017-04-25T00:06:57.344Z,9.48
2017-04-25T00:08:09.586Z,9.49
2017-04-25T00:09:21.829Z,9.51
2017-04-25T00:10:34.356Z,9.52
2017-04-25T00:11:46.891Z,9.49
2017-04-25T00:12:59.141Z,9.48
2017-04-25T00:14:11.371Z,9.4
2017-04-25T00:15:23.891Z,9.42
2017-04-25T00:16:36.442Z,9.36
2017-04-25T00:17:48.674Z,9.44
2017-04-25T00:19:01.203Z,9.4
2017-04-25T00:20:13.738Z,9.45
2017-04-25T00:21:26.241Z,9.29
2017-04-25T00:22:38.754Z,9.33
2017-04-25T00:23:51.287Z,9.39
2017-04-25T00:25:03.852Z,9.34
2017-04-25T00:26:16.385Z,9.31
2017-04-25T00:27:28.921Z,9.3
2017-04-25T00:28:41.462Z,9.31
2017-04-25T00:29:54.008Z,9.4
2017-04-25T00:31:06.252Z,9.37
2017-04-25T00:32:18.200Z,9.3
2017-04-25T00:33:30.447Z,9.31
2017-04-25T00:34:42.989Z,9.31
2017-04-25T00:35:55.521Z,9.29
2017-04-25T00:37:07.780Z,9.3
2017-04-25T00:38:20.002Z,9.36
2017-04-25T00:39:32.558Z,9.33
2017-04-25T00:40:44.797Z,9.29
2017-04-25T00:41:57.322Z,9.3
2017-04-25T00:43:09.845Z,9.26
2017-04-25T00:44:22.081Z,9.19
2017-04-25T00:45:34.627Z,9.16
2017-04-25T00:46:47.151Z,9.24
2017-04-25T00:47:59.726Z,9.27
2017-04-25T00:49:12.275Z,9.21
2017-04-25T00:50:24.513Z,9.18
2017-04-25T00:51:37.042Z,9.22
2017-04-25T00:52:49.281Z,9.19
2017-04-25T00:54:01.835Z,9.15
2017-04-25T00:55:14.373Z,9.19
2017-04-25T00:56:26.898Z,9.16
2017-04-25T00:57:39.469Z,9.21
2017-04-25T00:58:51.693Z,9.18
2017-04-25T01:00:03.913Z,9.16
2017-04-25T01:01:16.463Z,9.19
2017-04-25T01:02:29.022Z,9.16
2017-04-25T01:03:41.527Z,9.18
2017-04-25T01:04:54.069Z,9.15
2017-04-25T01:06:06.610Z,9.16
2017-04-25T01:07:19.106Z,9.19
2017-04-25T01:08:31.313Z,9.18
2017-04-25T01:09:43.845Z,9.15
2017-04-25T01:10:55.748Z,9.15
2017-04-25T01:12:07.966Z,9.18
2017-04-25T01:13:20.515Z,9.15
2017-04-25T01:14:33.032Z,9.18
2017-04-25T01:15:45.558Z,9.15
2017-04-25T01:16:58.095Z,9.12
2017-04-25T01:18:10.345Z,9.18
2017-04-25T01:19:22.588Z,9.16
2017-04-25T01:20:35.120Z,9.21
2017-04-25T01:21:47.640Z,9.19
2017-04-25T01:23:00.158Z,9.11
2017-04-25T01:24:12.658Z,9.16
2017-04-25T01:25:24.891Z,9.19
2017-04-25T01:26:37.413Z,9.22
2017-04-25T01:27:49.943Z,9.03
2017-04-25T01:29:02.455Z,9.21
2017-04-25T01:30:14.988Z,9.19
2017-04-25T01:31:27.546Z,9.12
2017-04-25T01:32:40.093Z,9.15
2017-04-25T01:33:52.642Z,9.12
2017-04-25T01:35:05.188Z,9.15
2017-04-25T01:36:17.691Z,9.15
2017-04-25T01:37:30.211Z,9.18
2017-04-25T01:38:42.750Z,9.19
2017-04-25T01:39:55.277Z,9.15
2017-04-25T01:41:07.791Z,9.11
2017-04-25T01:42:19.417Z,9.05
2017-04-25T01:43:31.966Z,9.08
2017-04-25T01:44:44.212Z,9.03
2017-04-25T01:45:56.461Z,9.03
2017-04-25T01:47:09.003Z,9.11
2017-04-25T01:48:21.504Z,9.11
2017-04-25T01:49:33.752Z,9.05
2017-04-25T01:50:46.305Z,9.08
2017-04-25T01:51:59.101Z,9.11
2017-04-25T01:53:11.605Z,9.09
2017-04-25T01:54:24.143Z,9.05
2017-04-25T01:55:36.651Z,9.09
2017-04-25T01:56:49.186Z,9.05
2017-04-25T01:58:01.718Z,9.03
2017-04-25T01:59:14.253Z,9.12
2017-04-25T02:00:26.798Z,8.97
2017-04-25T02:01:39.352Z,9
2017-04-25T02:02:51.871Z,8.97
2017-04-25T02:04:04.411Z,8.97
2017-04-25T02:05:16.931Z,8.95
2017-04-25T02:06:29.461Z,8.93
2017-04-25T02:07:41.688Z,8.97
2017-04-25T02:08:54.223Z,8.99
2017-04-25T02:10:06.752Z,9.02
2017-04-25T02:11:19.290Z,8.97
2017-04-25T02:12:31.811Z,9
2017-04-25T02:13:44.357Z,8.87
2017-04-25T02:14:56.892Z,8.89
2017-04-25T02:16:09.428Z,8.87
2017-04-25T02:17:21.991Z,8.82
2017-04-25T02:18:34.523Z,8.93
2017-04-25T02:19:47.065Z,8.9
2017-04-25T02:20:59.587Z,8.9
2017-04-25T02:22:12.107Z,8.86
2017-04-25T02:23:24.633Z,8.78
2017-04-25T02:24:37.177Z,8.92
2017-04-25T02:25:49.690Z,8.93
2017-04-25T02:27:02.221Z,8.87
2017-04-25T02:28:14.436Z,8.87
2017-04-25T02:29:26.686Z,8.77
2017-04-25T02:30:38.936Z,8.81
2017-04-25T02:31:51.491Z,8.84
2017-04-25T02:33:03.723Z,8.84
2017-04-25T02:34:16.242Z,8.79
2017-04-25T02:35:28.754Z,8.79
2017-04-25T02:36:41.276Z,8.82
2017-04-25T02:37:53.808Z,8.86
2017-04-25T02:39:06.346Z,8.81
2017-04-25T02:40:18.571Z,8.74
2017-04-25T02:41:31.096Z,8.79
2017-04-25T02:42:43.331Z,8.75
2017-04-25T02:43:55.855Z,8.75
2017-04-25T02:45:08.082Z,8.74
2017-04-25T02:46:20.307Z,8.75
2017-04-25T02:47:32.837Z,8.75
2017-04-25T02:48:45.071Z,8.79
2017-04-25T02:49:57.605Z,8.71
2017-04-25T02:51:10.437Z,8.72
2017-04-25T02:52:22.925Z,8.72
2017-04-25T02:53:35.469Z,8.69
2017-04-25T02:54:47.997Z,8.66
2017-04-25T02:56:00.518Z,8.66
2017-04-25T02:57:12.756Z,8.64
2017-04-25T02:58:25.277Z,8.66
2017-04-25T02:59:37.799Z,8.64
2017-04-25T03:00:50.051Z,8.64
2017-04-25T03:02:02.843Z,8.68
2017-04-25T03:03:15.064Z,8.61
2017-04-25T03:04:27.590Z,8.64
2017-04-25T03:05:40.131Z,8.61
2017-04-25T03:06:52.634Z,8.6
2017-04-25T03:08:04.880Z,8.59
2017-04-25T03:09:17.427Z,8.61
2017-04-25T03:10:29.961Z,8.57
2017-04-25T03:11:41.869Z,8.57
2017-04-25T03:12:54.413Z,8.57
2017-04-25T03:14:06.985Z,8.57
2017-04-25T03:15:18.622Z,8.64
2017-04-25T03:16:31.152Z,8.6
2017-04-25T03:17:43.686Z,8.59
2017-04-25T03:18:56.258Z,8.56
2017-04-25T03:20:08.804Z,8.56
2017-04-25T03:21:21.032Z,8.59
2017-04-25T03:22:33.256Z,8.46
2017-04-25T03:23:46.100Z,8.56
2017-04-25T03:24:58.627Z,8.54
2017-04-25T03:26:10.245Z,8.5
2017-04-25T03:27:22.766Z,8.52
2017-04-25T03:28:35.287Z,8.56
2017-04-25T03:29:47.524Z,8.52
2017-04-25T03:31:00.045Z,8.57
2017-04-25T03:32:12.244Z,8.56
2017-04-25T03:33:24.461Z,8.54
2017-04-25T03:34:37.008Z,8.44
2017-04-25T03:35:49.552Z,8.44
2017-04-25T03:37:01.778Z,8.57
2017-04-25T03:38:13.703Z,8.46
2017-04-25T03:39:26.223Z,8.42
2017-04-25T03:40:38.734Z,8.41
2017-04-25T03:41:51.241Z,8.46
2017-04-25T03:43:03.805Z,8.5
2017-04-25T03:44:16.307Z,8.49
2017-04-25T03:45:28.845Z,8.53
2017-04-25T03:46:41.374Z,8.5
2017-04-25T03:47:53.937Z,8.35
2017-04-25T03:49:06.484Z,8.41
2017-04-25T03:50:18.989Z,8.36
2017-04-25T03:51:31.554Z,8.35
2017-04-25T03:52:44.051Z,8.36
2017-04-25T03:53:56.571Z,8.41
2017-04-25T03:55:09.097Z,8.39
2017-04-25T03:56:21.642Z,8.49
2017-04-25T03:57:34.182Z,8.39
2017-04-25T03:58:46.710Z,8.35
2017-04-25T03:59:59.244Z,8.41
2017-04-25T04:01:11.497Z,8.5
2017-04-25T04:02:24.267Z,8.5
2017-04-25T04:03:36.782Z,8.46
2017-04-25T04:04:49.332Z,8.52
2017-04-25T04:06:01.560Z,8.46
2017-04-25T04:07:14.419Z,8.36
2017-04-25T04:08:26.946Z,8.38
2017-04-25T04:09:39.489Z,8.42
2017-04-25T04:10:52.013Z,8.41
2017-04-25T04:12:04.235Z,8.42
2017-04-25T04:13:16.759Z,8.42
2017-04-25T04:14:28.980Z,8.49
2017-04-25T04:15:41.543Z,8.39
2017-04-25T04:16:54.068Z,8.38
2017-04-25T04:18:06.585Z,8.42
2017-04-25T04:19:19.103Z,8.52
2017-04-25T04:20:31.627Z,8.46
2017-04-25T04:21:43.848Z,8.45
2017-04-25T04:22:56.383Z,8.49
2017-04-25T04:24:09.189Z,8.49
2017-04-25T04:25:21.736Z,8.46
2017-04-25T04:26:34.266Z,8.5
2017-04-25T04:27:46.800Z,8.53
2017-04-25T04:28:59.049Z,8.53
2017-04-25T04:30:11.591Z,8.61
2017-04-25T04:31:24.115Z,8.59
2017-04-25T04:32:36.644Z,8.54
2017-04-25T04:33:49.212Z,8.56
2017-04-25T04:35:01.733Z,8.6
2017-04-25T04:36:14.253Z,8.61
2017-04-25T04:37:26.777Z,8.6
2017-04-25T04:38:39.337Z,8.54
2017-04-25T04:39:52.133Z,8.53
2017-04-25T04:41:04.366Z,8.57
2017-04-25T04:42:16.925Z,8.59
2017-04-25T04:43:29.432Z,8.64
2017-04-25T04:44:41.976Z,8.61
2017-04-25T04:45:54.215Z,8.66
2017-04-25T04:47:06.144Z,8.64
2017-04-25T04:48:18.684Z,8.64
2017-04-25T04:49:31.253Z,8.71
2017-04-25T04:50:43.499Z,8.63
2017-04-25T04:51:56.025Z,8.69
2017-04-25T04:53:08.567Z,8.75
2017-04-25T04:54:21.066Z,8.75
2017-04-25T04:55:33.313Z,8.81
2017-04-25T04:56:45.863Z,8.72
2017-04-25T04:57:58.101Z,8.81
2017-04-25T04:59:10.345Z,8.86
2017-04-25T05:00:22.576Z,8.79
2017-04-25T05:01:35.095Z,8.84
2017-04-25T05:02:47.613Z,8.79
2017-04-25T05:04:00.138Z,8.87
2017-04-25T05:05:12.696Z,8.89
2017-04-25T05:06:25.211Z,8.9
2017-04-25T05:07:37.750Z,8.96
2017-04-25T05:08:50.300Z,8.96
2017-04-25T05:10:02.868Z,8.97
2017-04-25T05:11:15.103Z,9.03
2017-04-25T05:12:27.623Z,9.08
2017-04-25T05:13:40.148Z,9.11
2017-04-25T05:14:52.378Z,9.15
2017-04-25T05:16:04.947Z,9.11
2017-04-25T05:17:16.882Z,9.15
2017-04-25T05:18:29.402Z,9.19
2017-04-25T05:19:41.931Z,9.26
2017-04-25T05:20:54.472Z,9.21
2017-04-25T05:22:07.027Z,9.19
2017-04-25T05:23:18.944Z,9.29
2017-04-25T05:24:31.441Z,9.37
2017-04-25T05:25:43.983Z,9.31
2017-04-25T05:26:56.528Z,9.3
2017-04-25T05:28:09.033Z,9.39
2017-04-25T05:29:21.548Z,9.49
2017-04-25T05:30:33.769Z,9.51
2017-04-25T05:31:46.290Z,9.44
2017-04-25T05:32:58.857Z,9.48
2017-04-25T05:34:11.385Z,9.66
2017-04-25T05:35:23.958Z,9.58
2017-04-25T05:36:36.498Z,9.66
2017-04-25T05:37:49.023Z,9.73
2017-04-25T05:39:01.568Z,9.76
2017-04-25T05:40:14.057Z,9.8
2017-04-25T05:41:26.611Z,9.87
2017-04-25T05:42:39.174Z,9.92
2017-04-25T05:43:51.427Z,9.94
2017-04-25T05:45:03.673Z,9.99
2017-04-25T05:46:15.909Z,10.12
2017-04-25T05:47:28.438Z,10.13
2017-04-25T05:48:40.979Z,10.17
2017-04-25T05:49:53.525Z,10.27
2017-04-25T05:51:05.729Z,10.28
2017-04-25T05:52:18.263Z,10.41
2017-04-25T05:53:30.791Z,10.43
2017-04-25T05:54:43.304Z,10.46
2017-04-25T05:55:55.837Z,10.53
2017-04-25T05:57:08.095Z,10.72
2017-04-25T05:58:20.653Z,10.69
2017-04-25T05:59:33.196Z,10.72
2017-04-25T06:00:45.470Z,10.8
2017-04-25T06:01:58.029Z,10.94
2017-04-25T06:03:09.950Z,10.86
2017-04-25T06:04:22.481Z,11
2017-04-25T06:05:35.021Z,11.13
2017-04-25T06:06:47.855Z,11.19
2017-04-25T06:08:00.371Z,11.2
2017-04-25T06:09:12.589Z,11.22
2017-04-25T06:10:25.139Z,11.33
2017-04-25T06:11:37.648Z,11.38
2017-04-25T06:12:50.193Z,11.51
2017-04-25T06:14:02.727Z,11.55
2017-04-25T06:15:14.967Z,11.58
2017-04-25T06:16:27.188Z,11.65
2017-04-25T06:17:40.012Z,11.73
2017-04-25T06:18:52.549Z,11.71
2017-04-25T06:20:05.093Z,11.88
2017-04-25T06:21:17.627Z,11.88
2017-04-25T06:22:30.143Z,11.97
2017-04-25T06:23:42.666Z,12.12
2017-04-25T06:24:55.209Z,12.25
2017-04-25T06:26:07.730Z,12.25
2017-04-25T06:27:19.652Z,12.26
2017-04-25T06:28:32.190Z,12.39
2017-04-25T06:29:44.740Z,12.4
2017-04-25T06:30:57.289Z,12.4
2017-04-25T06:32:09.514Z,12.51
2017-04-25T06:33:22.058Z,12.53
2017-04-25T06:34:34.570Z,12.54
2017-04-25T06:35:47.126Z,12.54
2017-04-25T06:36:59.646Z,12.65
2017-04-25T06:38:11.882Z,12.65
2017-04-25T06:39:24.737Z,12.68
2017-04-25T06:40:37.024Z,12.65
2017-04-25T06:41:48.944Z,12.69
2017-04-25T06:43:01.452Z,12.73
2017-04-25T06:44:13.653Z,12.73
2017-04-25T06:45:25.869Z,12.76
2017-04-25T06:46:38.411Z,12.84
2017-04-25T06:47:50.908Z,13.01
2017-04-25T06:49:03.449Z,13.06
2017-04-25T06:50:15.649Z,13.16
2017-04-25T06:51:28.149Z,13.12
2017-04-25T06:52:40.692Z,13.12
2017-04-25T06:53:53.221Z,13.12
2017-04-25T06:55:05.451Z,13.13
2017-04-25T06:56:17.709Z,13.05
2017-04-25T06:57:30.271Z,12.95
2017-04-25T06:58:42.495Z,12.84
2017-04-25T06:59:55.038Z,12.73
2017-04-25T07:01:07.817Z,12.65
2017-04-25T07:02:20.029Z,12.47
2017-04-25T07:03:31.947Z,12.26
2017-04-25T07:04:44.160Z,12.21
2017-04-25T07:05:56.692Z,12.05
2017-04-25T07:07:09.238Z,11.95
2017-04-25T07:08:21.767Z,11.91
2017-04-25T07:09:34.313Z,11.63
2017-04-25T07:10:46.247Z,11.58
2017-04-25T07:11:58.772Z,11.55
2017-04-25T07:13:11.293Z,11.37
2017-04-25T07:14:23.538Z,11.34
2017-04-25T07:15:35.455Z,11.22
2017-04-25T07:16:47.690Z,11.13
2017-04-25T07:18:00.232Z,11.15
2017-04-25T07:19:12.449Z,11.04
2017-04-25T07:20:24.673Z,11.01
2017-04-25T07:21:36.897Z,10.92
2017-04-25T07:22:49.134Z,10.82
2017-04-25T07:24:01.641Z,10.76
2017-04-25T07:25:14.158Z,10.65
2017-04-25T07:26:26.677Z,10.58
2017-04-25T07:27:39.174Z,10.45
2017-04-25T07:28:51.686Z,10.38
2017-04-25T07:30:03.907Z,10.3
2017-04-25T07:31:16.438Z,10.18
2017-04-25T07:32:28.711Z,10.15
2017-04-25T07:33:41.246Z,10.06
2017-04-25T07:34:53.495Z,9.97
2017-04-25T07:36:06.043Z,9.87
2017-04-25T07:37:18.565Z,9.7
2017-04-25T07:38:31.087Z,9.77
2017-04-25T07:39:43.627Z,9.64
2017-04-25T07:40:56.173Z,9.51
2017-04-25T07:42:08.723Z,9.42
2017-04-25T07:43:21.262Z,9.34
2017-04-25T07:44:33.487Z,9.36
2017-04-25T07:45:45.732Z,9.21
2017-04-25T07:46:57.954Z,9.18
2017-04-25T07:48:10.153Z,9.13
2017-04-25T07:49:22.704Z,9.03
2017-04-25T07:50:35.247Z,9.03
2017-04-25T07:51:47.784Z,9.08
2017-04-25T07:53:00.033Z,8.95
2017-04-25T07:54:11.937Z,8.84
2017-04-25T07:55:24.482Z,8.87
2017-04-25T07:56:37.006Z,8.9
2017-04-25T07:57:49.250Z,8.75
2017-04-25T07:59:01.785Z,8.68
2017-04-25T08:00:14.308Z,8.64
2017-04-25T08:01:26.888Z,8.59
2017-04-25T08:02:39.130Z,8.56
2017-04-25T08:03:51.667Z,8.53
2017-04-25T08:05:03.888Z,8.49
2017-04-25T08:06:16.414Z,8.59
2017-04-25T08:07:28.659Z,8.56
2017-04-25T08:08:40.880Z,8.54
2017-04-25T08:09:53.410Z,8.46
2017-04-25T08:11:05.653Z,8.46
2017-04-25T08:12:17.575Z,8.56
2017-04-25T08:13:30.110Z,8.45
2017-04-25T08:14:42.668Z,8.46
2017-04-25T08:15:55.202Z,8.5
2017-04-25T08:17:07.734Z,8.54
2017-04-25T08:18:20.298Z,8.46
2017-04-25T08:19:32.551Z,8.6
2017-04-25T08:20:45.121Z,8.6
2017-04-25T08:21:57.666Z,8.72
2017-04-25T08:23:09.905Z,8.71
2017-04-25T08:24:22.131Z,8.72
2017-04-25T08:25:34.626Z,8.81
2017-04-25T08:26:47.141Z,8.77
2017-04-25T08:27:59.668Z,8.77
2017-04-25T08:29:11.906Z,8.78
2017-04-25T08:30:24.452Z,8.75
2017-04-25T08:31:37.006Z,8.75
2017-04-25T08:32:49.547Z,8.71
2017-04-25T08:34:01.769Z,8.71
2017-04-25T08:35:14.290Z,8.61
2017-04-25T08:36:26.824Z,8.56
2017-04-25T08:37:39.364Z,8.56
2017-04-25T08:38:52.188Z,8.53
2017-04-25T08:40:04.723Z,8.54
2017-04-25T08:41:16.649Z,8.53
2017-04-25T08:42:29.172Z,8.49
2017-04-25T08:43:41.730Z,8.39
2017-04-25T08:44:54.278Z,8.36
2017-04-25T08:46:06.185Z,8.34
2017-04-25T08:47:18.729Z,8.26
2017-04-25T08:48:31.266Z,8.27
2017-04-25T08:49:43.512Z,8.28
2017-04-25T08:50:55.766Z,8.31
2017-04-25T08:52:08.282Z,8.31
2017-04-25T08:53:20.488Z,8.2
2017-04-25T08:54:32.431Z,8.16
2017-04-25T08:55:44.970Z,8.27
2017-04-25T08:56:57.523Z,8.23
2017-04-25T08:58:09.766Z,8.27
2017-04-25T08:59:22.293Z,8.17
2017-04-25T09:00:34.825Z,8.31
2017-04-25T09:01:47.385Z,8.26
2017-04-25T09:02:59.932Z,8.28
2017-04-25T09:04:12.192Z,8.26
2017-04-25T09:05:24.718Z,8.24
2017-04-25T09:06:37.212Z,8.34
2017-04-25T09:07:49.750Z,8.27
2017-04-25T09:09:02.301Z,8.28
2017-04-25T09:10:14.853Z,8.42
2017-04-25T09:11:27.376Z,8.44
2017-04-25T09:12:39.897Z,8.39
2017-04-25T09:13:52.433Z,8.49
2017-04-25T09:15:04.687Z,8.53
2017-04-25T09:16:17.222Z,8.45
2017-04-25T09:17:29.729Z,8.42
2017-04-25T09:18:42.277Z,8.53
2017-04-25T09:19:54.220Z,8.44
2017-04-25T09:21:06.755Z,8.5
2017-04-25T09:22:19.279Z,8.57
2017-04-25T09:23:31.811Z,8.45
2017-04-25T09:24:44.057Z,8.49
2017-04-25T09:25:56.593Z,8.56
2017-04-25T09:27:09.147Z,8.56
2017-04-25T09:28:21.688Z,8.57
2017-04-25T09:29:34.236Z,8.57
2017-04-25T09:30:46.811Z,8.64
2017-04-25T09:31:59.352Z,8.66
2017-04-25T09:33:11.893Z,8.78
2017-04-25T09:34:24.114Z,8.74
2017-04-25T09:35:36.682Z,8.77
2017-04-25T09:36:48.916Z,8.77
2017-04-25T09:38:01.131Z,8.82
2017-04-25T09:39:13.630Z,8.75
2017-04-25T09:40:25.576Z,8.75
2017-04-25T09:41:38.111Z,8.72
2017-04-25T09:42:50.357Z,8.68
2017-04-25T09:44:02.903Z,8.66
2017-04-25T09:45:14.556Z,8.71
2017-04-25T09:46:27.081Z,8.68
2017-04-25T09:47:39.623Z,8.63
2017-04-25T09:48:52.124Z,8.79
2017-04-25T09:50:04.365Z,8.74
2017-04-25T09:51:16.903Z,8.97
2017-04-25T09:52:29.131Z,9.08
2017-04-25T09:53:41.683Z,9.21
2017-04-25T09:54:53.919Z,9.34
2017-04-25T09:56:06.472Z,9.37
2017-04-25T09:57:18.718Z,9.47
2017-04-25T09:58:30.937Z,9.47
2017-04-25T09:59:43.464Z,9.51
2017-04-25T10:00:55.998Z,9.7
2017-04-25T10:02:08.499Z,9.73
2017-04-25T10:03:20.737Z,9.84
2017-04-25T10:04:33.269Z,9.88
2017-04-25T10:05:45.515Z,9.97
2017-04-25T10:06:58.062Z,10.12
2017-04-25T10:08:10.024Z,10.27
2017-04-25T10:09:22.554Z,10.36
2017-04-25T10:10:35.118Z,10.43
2017-04-25T10:11:47.638Z,10.72
2017-04-25T10:13:00.191Z,10.79
2017-04-25T10:14:12.731Z,10.92
2017-04-25T10:15:25.258Z,11
2017-04-25T10:16:37.795Z,10.94
2017-04-25T10:17:50.349Z,11.04
2017-04-25T10:19:02.888Z,11.15
2017-04-25T10:20:15.113Z,11.16
2017-04-25T10:21:27.633Z,11.19
2017-04-25T10:22:40.155Z,11.26
2017-04-25T10:23:52.693Z,11.35
2017-04-25T10:25:04.926Z,11.4
2017-04-25T10:26:17.167Z,11.44
2017-04-25T10:27:29.081Z,11.52
2017-04-25T10:28:41.653Z,11.59
2017-04-25T10:29:54.180Z,11.55
2017-04-25T10:31:06.682Z,11.58
2017-04-25T10:32:18.943Z,11.56
2017-04-25T10:33:31.488Z,11.56
2017-04-25T10:34:43.768Z,11.62
2017-04-25T10:35:55.685Z,11.56
2017-04-25T10:37:07.909Z,11.58
2017-04-25T10:38:20.426Z,11.53
2017-04-25T10:39:32.649Z,11.48
2017-04-25T10:40:44.864Z,11.51
2017-04-25T10:41:57.067Z,11.44
2017-04-25T10:43:09.606Z,11.45
2017-04-25T10:44:21.858Z,11.4
2017-04-25T10:45:34.397Z,11.4
2017-04-25T10:46:46.940Z,11.48
2017-04-25T10:47:59.465Z,11.62
2017-04-25T10:49:11.984Z,11.76
2017-04-25T10:50:23.610Z,11.77
2017-04-25T10:51:35.835Z,12.03
2017-04-25T10:52:48.095Z,12.18
2017-04-25T10:54:00.308Z,12.23
2017-04-25T10:55:12.536Z,12.33
2017-04-25T10:56:24.795Z,12.48
2017-04-25T10:57:37.337Z,12.45
2017-04-25T10:58:49.878Z,12.62
2017-04-25T11:00:02.099Z,12.65
2017-04-25T11:01:14.345Z,12.7
2017-04-25T11:02:26.898Z,12.66
2017-04-25T11:03:39.111Z,12.65
2017-04-25T11:04:51.333Z,12.61
2017-04-25T11:06:03.900Z,12.55
2017-04-25T11:07:16.425Z,12.45
2017-04-25T11:08:28.042Z,12.36
2017-04-25T11:09:40.250Z,12.29
2017-04-25T11:10:52.194Z,12.36
2017-04-25T11:12:04.708Z,12.35
2017-04-25T11:13:16.664Z,12.37
2017-04-25T11:14:28.921Z,12.54
2017-04-25T11:15:41.146Z,12.66
2017-04-25T11:16:53.672Z,12.69
2017-04-25T11:18:05.920Z,12.81
2017-04-25T11:19:17.841Z,12.87
2017-04-25T11:20:30.380Z,12.94
2017-04-25T11:21:42.901Z,13.03
2017-04-25T11:22:55.426Z,13.13
2017-04-25T11:24:07.651Z,13.2
2017-04-25T11:25:19.893Z,13.21
2017-04-25T11:26:32.443Z,13.17
2017-04-25T11:27:44.977Z,13.13
2017-04-25T11:28:56.927Z,13.09
2017-04-25T11:30:09.472Z,13.11
2017-04-25T11:31:21.978Z,13.11
2017-04-25T11:32:34.521Z,13.17
2017-04-25T11:33:47.069Z,13.23
2017-04-25T11:34:59.616Z,13.12
2017-04-25T11:36:12.148Z,13.19
2017-04-25T11:37:24.370Z,13.09
2017-04-25T11:38:36.922Z,13.13
2017-04-25T11:39:49.472Z,12.99
2017-04-25T11:41:01.418Z,12.9
2017-04-25T11:42:13.660Z,12.76
2017-04-25T11:43:25.882Z,12.83
2017-04-25T11:44:38.129Z,12.55
2017-04-25T11:45:50.648Z,12.44
2017-04-25T11:47:02.871Z,12.25
2017-04-25T11:48:15.107Z,12.18
2017-04-25T11:49:27.335Z,12.12
2017-04-25T11:50:39.578Z,12.03
2017-04-25T11:51:51.811Z,11.96
2017-04-25T11:53:04.067Z,11.85
2017-04-25T11:54:16.298Z,11.68
2017-04-25T11:55:28.811Z,11.73
2017-04-25T11:56:41.354Z,11.59
2017-04-25T11:57:53.878Z,11.45
2017-04-25T11:59:06.099Z,11.44
2017-04-25T12:00:18.627Z,11.48
2017-04-25T12:01:31.142Z,11.48
2017-04-25T12:02:43.662Z,11.37
2017-04-25T12:03:55.882Z,11.34
2017-04-25T12:05:08.428Z,11.23
2017-04-25T12:06:20.971Z,11.23
2017-04-25T12:07:33.501Z,11.23
2017-04-25T12:08:46.074Z,11.23
2017-04-25T12:09:58.621Z,11.26
2017-04-25T12:11:10.868Z,11.23
2017-04-25T12:12:23.429Z,11.25
2017-04-25T12:13:35.982Z,11.18
2017-04-25T12:14:48.225Z,11.1
2017-04-25T12:16:00.767Z,11.01
2017-04-25T12:17:12.984Z,10.95
2017-04-25T12:18:25.506Z,10.97
2017-04-25T12:19:37.755Z,10.98
2017-04-25T12:20:49.679Z,10.94
2017-04-25T12:22:02.178Z,11.04
2017-04-25T12:23:14.417Z,10.92
2017-04-25T12:24:26.964Z,10.95
2017-04-25T12:25:39.480Z,11
2017-04-25T12:26:52.016Z,11.1
2017-04-25T12:28:04.248Z,11.23
2017-04-25T12:29:16.468Z,11.49
2017-04-25T12:30:28.726Z,11.73
2017-04-25T12:31:41.250Z,11.86
2017-04-25T12:32:53.510Z,12.12
2017-04-25T12:34:06.063Z,12.26
2017-04-25T12:35:18.624Z,12.32
2017-04-25T12:36:31.169Z,12.57
2017-04-25T12:37:43.698Z,12.76
2017-04-25T12:38:56.195Z,12.84
2017-04-25T12:40:08.747Z,12.98
2017-04-25T12:41:21.006Z,13.23
2017-04-25T12:42:33.252Z,13.62
2017-04-25T12:43:45.798Z,13.79
2017-04-25T12:44:58.319Z,14.12
2017-04-25T12:46:10.565Z,14.52
2017-04-25T12:47:23.137Z,14.78
2017-04-25T12:48:35.364Z,14.96
2017-04-25T12:49:47.908Z,15.05
2017-04-25T12:51:00.420Z,15.25
2017-04-25T12:52:12.665Z,15.41
2017-04-25T12:53:25.247Z,15.62
2017-04-25T12:54:37.486Z,15.76
2017-04-25T12:55:50.028Z,15.99
2017-04-25T12:57:02.553Z,16.13
2017-04-25T12:58:14.795Z,16.32
2017-04-25T12:59:27.354Z,16.54
2017-04-25T13:00:39.913Z,16.72
2017-04-25T13:01:52.132Z,16.83
2017-04-25T13:03:04.679Z,16.74
2017-04-25T13:04:17.250Z,16.83
2017-04-25T13:05:29.500Z,16.79
2017-04-25T13:06:42.069Z,16.69
2017-04-25T13:07:53.988Z,16.91
2017-04-25T13:09:06.246Z,16.87
2017-04-25T13:10:18.840Z,16.84
2017-04-25T13:11:30.760Z,16.74
2017-04-25T13:12:42.700Z,16.76
2017-04-25T13:13:54.668Z,16.72
2017-04-25T13:15:07.215Z,16.8
2017-04-25T13:16:19.759Z,16.77
2017-04-25T13:17:32.308Z,16.79
2017-04-25T13:18:44.833Z,16.68
2017-04-25T13:19:57.732Z,16.57
2017-04-25T13:21:10.276Z,16.44
2017-04-25T13:22:22.513Z,16.4
2017-04-25T13:23:35.044Z,16.39
2017-04-25T13:24:47.291Z,16.36
2017-04-25T13:25:59.812Z,16.18
2017-04-25T13:27:12.051Z,16.12
2017-04-25T13:28:24.604Z,15.9
2017-04-25T13:29:36.575Z,15.87
2017-04-25T13:30:49.147Z,15.78
2017-04-25T13:32:01.084Z,15.65
2017-04-25T13:33:12.709Z,15.59
2017-04-25T13:34:25.255Z,15.51
2017-04-25T13:35:37.501Z,15.44
2017-04-25T13:36:50.040Z,15.33
2017-04-25T13:38:02.586Z,15.12
2017-04-25T13:39:14.818Z,15.02
2017-04-25T13:40:27.402Z,14.97
2017-04-25T13:41:39.322Z,14.78
2017-04-25T13:42:51.244Z,14.63
2017-04-25T13:44:03.765Z,14.53
2017-04-25T13:45:16.023Z,14.4
2017-04-25T13:46:28.565Z,14.19
2017-04-25T13:47:41.107Z,14.22
2017-04-25T13:48:53.656Z,14.08
2017-04-25T13:50:06.180Z,13.94
2017-04-25T13:51:18.115Z,13.97
2017-04-25T13:52:29.471Z,13.97
2017-04-25T13:53:41.443Z,13.86
2017-04-25T13:54:54.014Z,13.87
2017-04-25T13:56:06.527Z,13.79
2017-04-25T13:57:18.782Z,13.82
2017-04-25T13:58:31.024Z,13.68
2017-04-25T13:59:43.566Z,13.68
2017-04-25T14:00:56.090Z,13.73
2017-04-25T14:02:08.260Z,13.62
2017-04-25T14:03:19.002Z,13.62
2017-04-25T14:04:30.974Z,13.58
2017-04-25T14:05:42.897Z,13.61
2017-04-25T14:06:55.399Z,13.62
2017-04-25T14:08:07.922Z,13.5
2017-04-25T14:09:20.130Z,13.61
2017-04-25T14:10:32.662Z,13.57
2017-04-25T14:11:44.889Z,13.46
2017-04-25T14:12:56.217Z,13.39
2017-04-25T14:14:06.939Z,13.31
2017-04-25T14:15:18.567Z,13.31
2017-04-25T14:16:31.106Z,13.21
2017-04-25T14:17:43.662Z,13.26
2017-04-25T14:18:55.884Z,13.28
2017-04-25T14:20:08.421Z,13.28
2017-04-25T14:21:20.345Z,13.23
2017-04-25T14:22:31.402Z,13.23
2017-04-25T14:23:42.490Z,13.23
2017-04-25T14:24:53.500Z,13.16
2017-04-25T14:26:04.250Z,13.2
2017-04-25T14:27:15.580Z,13.2
2017-04-25T14:28:28.123Z,13.26
2017-04-25T14:29:40.340Z,13.28
2017-04-25T14:30:52.895Z,13.26
2017-04-25T14:32:04.834Z,13.27
2017-04-25T14:33:15.876Z,13.33
2017-04-25T14:34:27.219Z,13.28
2017-04-25T14:35:38.899Z,13.31
2017-04-25T14:36:50.793Z,13.4
2017-04-25T14:38:01.797Z,13.33
2017-04-25T14:39:14.360Z,13.5
2017-04-25T14:40:26.002Z,13.55
2017-04-25T14:41:38.531Z,13.67
2017-04-25T14:42:50.748Z,13.65
2017-04-25T14:44:03.313Z,13.61
2017-04-25T14:45:15.241Z,13.68
2017-04-25T14:46:27.145Z,13.7
2017-04-25T14:47:39.681Z,13.62
2017-04-25T14:48:52.204Z,13.71
2017-04-25T14:50:04.701Z,13.83
2017-04-25T14:51:16.912Z,13.79
2017-04-25T14:52:29.462Z,13.75
2017-04-25T14:53:41.991Z,13.73
2017-04-25T14:54:55.726Z,13.83
2017-04-25T14:56:08.282Z,13.85
2017-04-25T14:57:20.491Z,13.73
2017-04-25T14:58:33.098Z,13.65
2017-04-25T14:59:45.622Z,13.62
2017-04-25T15:00:57.854Z,13.65
2017-04-25T15:02:10.106Z,13.5
2017-04-25T15:03:22.354Z,13.57
2017-04-25T15:04:34.567Z,13.46
2017-04-25T15:05:47.089Z,13.45
2017-04-25T15:06:59.634Z,13.4
2017-04-25T15:08:11.891Z,13.37
2017-04-25T15:09:24.450Z,13.27
2017-04-25T15:10:36.998Z,13.26
2017-04-25T15:11:49.519Z,13.23
2017-04-25T15:13:02.101Z,13.24
2017-04-25T15:14:14.638Z,13.28
2017-04-25T15:15:27.234Z,13.26
2017-04-25T15:16:39.757Z,13.28
2017-04-25T15:17:52.306Z,13.16
2017-04-25T15:19:04.827Z,13.05
2017-04-25T15:20:17.074Z,13.02
2017-04-25T15:21:29.613Z,13.06
2017-04-25T15:22:42.163Z,12.98
2017-04-25T15:23:54.701Z,12.83
2017-04-25T15:25:07.226Z,12.8
2017-04-25T15:26:19.176Z,12.78
2017-04-25T15:27:31.689Z,12.73
2017-04-25T15:28:44.239Z,12.72
2017-04-25T15:29:56.741Z,12.55
2017-04-25T15:31:09.241Z,12.44
2017-04-25T15:32:21.477Z,12.43
2017-04-25T15:33:34.001Z,12.29
2017-04-25T15:34:46.541Z,12.21
2017-04-25T15:35:59.073Z,12.11
2017-04-25T15:37:11.614Z,12.07
2017-04-25T15:38:23.830Z,12.07
2017-04-25T15:39:36.086Z,11.97
2017-04-25T15:40:48.606Z,11.99
2017-04-25T15:42:00.851Z,11.91
2017-04-25T15:43:13.074Z,11.99
2017-04-25T15:44:25.015Z,11.85
2017-04-25T15:45:37.529Z,11.77
2017-04-25T15:46:50.077Z,11.76
2017-04-25T15:48:02.603Z,11.73
2017-04-25T15:49:15.119Z,11.62
2017-04-25T15:50:27.385Z,11.67
2017-04-25T15:51:39.919Z,11.56